createdAt,value
2017-09-26T00:00:22.219Z,14.80
2017-09-26T00:02:49.797Z,15.37
2017-09-26T00:05:17.405Z,14.30
2017-09-26T00:07:44.969Z,15.37
2017-09-26T00:10:12.687Z,13.67
2017-09-26T00:12:41.175Z,13.63
2017-09-26T00:15:11.731Z,13.80
2017-09-26T00:17:39.664Z,16.27
2017-09-26T00:20:12.194Z,15.30
2017-09-26T00:22:41.045Z,15.07
2017-09-26T00:25:08.904Z,14.40
2017-09-26T00:27:36.455Z,14.60
2017-09-26T00:30:04.095Z,16.00
2017-09-26T00:32:31.808Z,15.97
2017-09-26T00:34:59.450Z,15.13
2017-09-26T00:37:27.044Z,15.03
2017-09-26T00:39:54.680Z,13.87
2017-09-26T00:42:22.241Z,14.43
2017-09-26T00:44:49.799Z,13.60
2017-09-26T00:47:17.395Z,13.50
2017-09-26T00:49:44.938Z,14.53
2017-09-26T00:52:12.547Z,13.60
2017-09-26T00:54:40.158Z,14.40
2017-09-26T00:57:07.672Z,14.50
2017-09-26T00:59:35.216Z,14.60
2017-09-26T01:02:03.596Z,13.47
2017-09-26T01:04:31.178Z,15.30
2017-09-26T01:07:08.726Z,13.97
2017-09-26T01:09:36.926Z,14.67
2017-09-26T01:12:04.564Z,13.90
2017-09-26T01:14:32.262Z,14.10
2017-09-26T01:17:00.733Z,13.40
2017-09-26T01:19:28.298Z,15.37
2017-09-26T01:21:55.873Z,16.80
2017-09-26T01:24:23.389Z,15.77
2017-09-26T01:26:51.046Z,16.83
2017-09-26T01:29:18.848Z,16.27
2017-09-26T01:31:46.429Z,15.77
2017-09-26T01:34:13.997Z,16.13
2017-09-26T01:36:41.591Z,16.23
2017-09-26T01:39:09.320Z,14.80
2017-09-26T01:41:37.370Z,15.73
2017-09-26T01:44:05.085Z,16.60
2017-09-26T01:46:32.653Z,15.70
2017-09-26T01:49:00.213Z,14.90
2017-09-26T01:51:27.822Z,15.90
2017-09-26T01:53:55.421Z,15.87
2017-09-26T01:56:23.911Z,16.90
2017-09-26T02:01:59.989Z,16.10
2017-09-26T02:04:27.523Z,16.33
2017-09-26T02:06:55.192Z,15.20
2017-09-26T02:09:22.984Z,15.27
2017-09-26T02:11:50.650Z,15.73
2017-09-26T02:14:18.401Z,15.97
2017-09-26T02:16:46.010Z,15.23
2017-09-26T02:19:13.613Z,15.43
2017-09-26T02:21:41.192Z,15.93
2017-09-26T02:24:08.856Z,16.70
2017-09-26T02:26:36.383Z,16.50
2017-09-26T02:29:04.230Z,16.00
2017-09-26T02:31:31.762Z,16.30
2017-09-26T02:33:59.529Z,15.57
2017-09-26T02:36:27.057Z,16.03
2017-09-26T02:38:54.660Z,15.93
2017-09-26T02:41:22.588Z,16.43
2017-09-26T02:43:50.270Z,16.70
2017-09-26T02:46:17.961Z,17.43
2017-09-26T02:48:46.436Z,17.33
2017-09-26T02:51:13.962Z,17.60
2017-09-26T02:53:42.031Z,16.50
2017-09-26T02:56:10.387Z,17.47
2017-09-26T02:58:38.068Z,16.37
2017-09-26T03:01:05.679Z,17.73
2017-09-26T03:03:33.220Z,17.80
2017-09-26T03:06:00.936Z,16.90
2017-09-26T03:08:29.333Z,15.90
2017-09-26T03:10:57.881Z,15.87
2017-09-26T03:13:26.002Z,16.00
2017-09-26T03:15:53.583Z,17.60
2017-09-26T03:18:21.111Z,16.27
2017-09-26T03:20:48.631Z,16.07
2017-09-26T03:23:16.270Z,17.40
2017-09-26T03:25:44.110Z,16.00
2017-09-26T03:28:11.757Z,16.10
2017-09-26T03:30:39.508Z,16.70
2017-09-26T03:33:07.102Z,16.47
2017-09-26T03:35:34.781Z,16.83
2017-09-26T03:38:02.309Z,16.73
2017-09-26T03:40:29.954Z,14.97
2017-09-26T03:42:57.562Z,15.37
2017-09-26T03:45:25.100Z,16.10
2017-09-26T03:47:52.869Z,16.77
2017-09-26T03:50:21.262Z,15.70
2017-09-26T03:52:48.775Z,16.10
2017-09-26T03:55:16.329Z,15.97
2017-09-26T03:57:43.890Z,17.13
2017-09-26T04:00:11.535Z,15.60
2017-09-26T04:02:39.481Z,17.47
2017-09-26T04:05:08.730Z,17.23
2017-09-26T04:07:36.220Z,17.47
2017-09-26T15:37:48.648Z,6.73
2017-09-26T15:40:16.290Z,7.70
2017-09-26T15:42:43.788Z,9.70
2017-09-26T15:45:11.396Z,13.77
2017-09-26T15:47:38.998Z,15.73
2017-09-26T15:50:06.557Z,18.87
2017-09-26T15:52:34.118Z,16.50
2017-09-26T15:55:01.648Z,20.00
2017-09-26T15:57:29.181Z,20.37
2017-09-26T15:59:56.785Z,18.77
2017-09-26T16:02:24.314Z,19.17
2017-09-26T16:04:51.854Z,13.27
2017-09-26T16:07:19.479Z,9.97
2017-09-26T16:09:47.038Z,9.70
2017-09-26T16:12:14.547Z,8.80
2017-09-26T16:14:42.069Z,9.30
2017-09-26T16:17:13.207Z,9.60
2017-09-26T16:19:40.817Z,9.30
2017-09-26T16:22:08.297Z,8.20
2017-09-26T16:24:35.833Z,8.40
2017-09-26T16:27:03.370Z,7.70
2017-09-26T16:29:31.807Z,8.40
2017-09-26T16:31:59.359Z,9.27
2017-09-26T16:34:26.891Z,10.43
2017-09-26T16:36:54.426Z,9.97
2017-09-26T16:39:21.962Z,12.00
2017-09-26T16:41:49.477Z,10.03
2017-09-26T16:44:17.034Z,8.33
2017-09-26T16:46:44.576Z,9.50
2017-09-26T16:49:12.154Z,9.10
2017-09-26T16:51:39.627Z,8.50
2017-09-26T16:54:07.105Z,11.43
2017-09-26T16:56:34.611Z,12.77
2017-09-26T16:59:02.075Z,13.23
2017-09-26T17:01:29.750Z,12.23
2017-09-26T17:03:57.228Z,11.47
2017-09-26T17:06:24.844Z,14.93
2017-09-26T17:08:53.462Z,14.03
2017-09-26T17:11:21.043Z,13.90
2017-09-26T17:13:48.666Z,14.50
2017-09-26T17:16:16.323Z,14.53
2017-09-26T17:18:43.871Z,13.30
2017-09-26T17:21:11.447Z,13.40
2017-09-26T17:23:40.079Z,13.90
2017-09-26T17:26:07.670Z,12.37
2017-09-26T17:28:36.666Z,13.17
2017-09-26T17:31:05.196Z,13.10
2017-09-26T17:33:33.159Z,13.60
2017-09-26T17:36:00.767Z,13.53
2017-09-26T17:38:28.292Z,13.73
2017-09-26T17:40:55.888Z,16.00
2017-09-26T17:43:23.502Z,14.90
2017-09-26T17:45:55.359Z,16.07
2017-09-26T17:48:23.002Z,15.77
2017-09-26T17:50:51.442Z,16.07
2017-09-26T17:53:19.051Z,16.10
2017-09-26T17:55:46.547Z,16.53
2017-09-26T17:58:15.107Z,24.10
2017-09-26T18:00:43.112Z,19.60
2017-09-26T18:03:10.871Z,17.47
2017-09-26T18:05:38.627Z,17.00
2017-09-26T18:08:06.300Z,18.40
2017-09-26T18:10:36.563Z,17.73
2017-09-26T18:13:08.580Z,16.80
2017-09-26T18:15:40.984Z,18.40
2017-09-26T18:18:08.760Z,19.13
2017-09-26T18:20:37.785Z,19.03
2017-09-26T18:23:06.971Z,18.80
2017-09-26T18:25:35.889Z,18.97
2017-09-26T18:28:04.873Z,20.67
2017-09-26T18:30:32.714Z,18.40
2017-09-26T18:33:01.172Z,16.93
2017-09-26T18:35:29.191Z,16.57
2017-09-26T18:37:59.214Z,16.70
2017-09-26T18:40:28.004Z,16.50
2017-09-26T18:42:55.893Z,17.23
2017-09-26T18:45:28.549Z,17.37
2017-09-26T18:47:56.357Z,17.90
2017-09-26T18:50:24.379Z,18.87
2017-09-26T18:52:53.506Z,17.30
2017-09-26T18:55:21.949Z,19.10
2017-09-26T18:57:53.128Z,19.00
2017-09-26T19:00:20.820Z,20.20
2017-09-26T19:02:54.376Z,18.40
2017-09-26T19:05:23.252Z,19.40
2017-09-26T19:07:50.805Z,19.23
2017-09-26T19:10:18.365Z,18.70
2017-09-26T19:12:46.820Z,18.47
2017-09-26T19:15:14.408Z,20.60
2017-09-26T19:17:41.983Z,22.90
2017-09-26T19:20:09.592Z,23.40
2017-09-26T19:22:37.509Z,21.67
2017-09-26T19:25:05.079Z,21.13
2017-09-26T19:27:33.305Z,19.53
2017-09-26T19:30:00.872Z,18.90
2017-09-26T19:32:28.791Z,21.07
2017-09-26T19:34:56.384Z,23.00
2017-09-26T19:37:23.984Z,23.50
2017-09-26T19:39:52.874Z,22.80
2017-09-26T19:42:20.508Z,20.63
2017-09-26T19:44:48.146Z,20.87
2017-09-26T19:47:15.709Z,22.93
2017-09-26T19:49:43.364Z,19.83
2017-09-26T19:52:10.966Z,22.07
2017-09-26T19:54:38.641Z,21.23
2017-09-26T19:57:06.168Z,21.73
2017-09-26T19:59:33.769Z,22.20
2017-09-26T20:02:01.352Z,23.83
2017-09-26T20:04:28.994Z,22.80
2017-09-26T20:06:56.800Z,22.20
2017-09-26T20:09:24.866Z,20.90
2017-09-26T20:11:53.096Z,21.27
2017-09-26T20:14:22.145Z,22.30
2017-09-26T20:16:49.949Z,22.60
2017-09-26T20:19:17.744Z,22.80
2017-09-26T20:21:46.204Z,23.40
2017-09-26T20:24:14.344Z,23.40
2017-09-26T20:26:42.550Z,22.27
2017-09-26T20:29:15.082Z,23.53
2017-09-26T20:31:43.493Z,21.97
2017-09-26T20:34:11.988Z,23.60
2017-09-26T20:36:40.779Z,22.43
2017-09-26T20:39:08.408Z,24.53
2017-09-26T20:41:36.045Z,23.73
2017-09-26T20:44:03.843Z,22.27
2017-09-26T20:46:32.044Z,23.53
2017-09-26T20:49:00.405Z,23.30
2017-09-26T20:51:28.240Z,22.60
2017-09-26T20:53:56.026Z,22.57
2017-09-26T20:56:23.779Z,22.83
2017-09-26T20:58:51.420Z,23.67
2017-09-26T21:01:19.116Z,22.40
2017-09-26T21:03:46.759Z,22.07
2017-09-26T21:06:14.717Z,21.03
2017-09-26T21:08:42.372Z,22.70
2017-09-26T21:11:10.149Z,21.03
2017-09-26T21:13:38.023Z,21.07
2017-09-26T21:16:05.587Z,19.53
2017-09-26T21:18:33.277Z,20.50
2017-09-26T21:21:02.036Z,20.97
2017-09-26T21:23:31.137Z,21.93
2017-09-26T21:25:58.841Z,22.17
2017-09-26T21:28:28.268Z,22.27
2017-09-26T21:30:56.084Z,22.50
2017-09-26T21:33:26.131Z,22.83
2017-09-26T21:35:54.933Z,21.83
2017-09-26T21:38:22.454Z,22.83
2017-09-26T21:40:50.139Z,22.60
2017-09-26T21:43:17.746Z,21.47
2017-09-26T21:45:45.414Z,20.67
2017-09-26T21:48:13.337Z,19.90
2017-09-26T21:50:41.182Z,19.20
2017-09-26T21:53:08.758Z,19.03
2017-09-26T21:55:36.426Z,19.27
2017-09-26T21:58:04.225Z,18.33
2017-09-26T22:00:31.878Z,18.20
2017-09-26T22:02:59.593Z,19.13
2017-09-26T22:05:27.365Z,20.33
2017-09-26T22:07:56.640Z,20.60
2017-09-26T22:10:24.362Z,21.93
2017-09-26T22:12:52.896Z,23.40
2017-09-26T22:15:20.594Z,21.57
2017-09-26T22:17:48.181Z,21.33
2017-09-26T22:20:15.729Z,21.83
2017-09-26T22:22:43.373Z,22.27
2017-09-26T22:25:11.152Z,21.53
2017-09-26T22:27:39.774Z,21.60
2017-09-26T22:30:07.304Z,22.37
2017-09-26T22:32:35.054Z,20.73
2017-09-26T22:35:03.073Z,20.37
2017-09-26T22:37:30.626Z,21.80
2017-09-26T22:39:58.633Z,19.77
2017-09-26T22:42:26.241Z,20.07
2017-09-26T22:44:54.036Z,18.63
2017-09-26T22:47:22.454Z,18.33
2017-09-26T22:49:50.452Z,17.20
2017-09-26T22:52:18.148Z,18.33
2017-09-26T22:54:46.973Z,17.73
2017-09-26T22:57:14.748Z,17.00
2017-09-26T22:59:42.742Z,20.37
2017-09-26T23:02:10.286Z,19.53
2017-09-26T23:04:37.903Z,20.17
2017-09-26T23:07:06.317Z,19.23
2017-09-26T23:09:35.555Z,20.50
2017-09-26T23:12:03.411Z,18.33
2017-09-26T23:14:31.205Z,18.83
2017-09-26T23:16:58.862Z,18.33
2017-09-26T23:19:31.499Z,18.40
2017-09-26T23:21:59.341Z,17.23
2017-09-26T23:24:26.859Z,18.43
2017-09-26T23:26:54.588Z,16.23
2017-09-26T23:29:22.928Z,16.17
2017-09-26T23:31:50.912Z,16.93
2017-09-26T23:34:20.114Z,16.13
2017-09-26T23:36:48.601Z,16.07
2017-09-26T23:39:17.901Z,17.37
2017-09-26T23:41:45.744Z,16.57
2017-09-26T23:44:14.196Z,17.17
2017-09-26T23:46:42.595Z,16.00
2017-09-26T23:49:11.091Z,17.30
2017-09-26T23:51:38.827Z,17.73
2017-09-26T23:54:06.503Z,17.40
2017-09-26T23:56:43.488Z,16.50
2017-09-26T23:59:11.739Z,15.40
